sensor_id;sensor_type;location;lat;lon;timestamp;temperature;humidity
60027;DHT22;45891;53.006;6.512;2024-02-16T00:00:30;11.30;99.90
60027;DHT22;45891;53.006;6.512;2024-02-16T00:02:56;11.30;99.90
60027;DHT22;45891;53.006;6.512;2024-02-16T00:05:22;11.30;99.90
60027;DHT22;45891;53.006;6.512;2024-02-16T00:07:48;11.20;99.90
60027;DHT22;45891;53.006;6.512;2024-02-16T00:10:14;11.20;99.90
60027;DHT22;45891;53.006;6.512;2024-02-16T00:12:40;11.30;99.90
60027;DHT22;45891;53.006;6.512;2024-02-16T00:15:07;11.30;99.90
60027;DHT22;45891;53.006;6.512;2024-02-16T00:17:33;11.30;99.90
60027;DHT22;45891;53.006;6.512;2024-02-16T00:19:59;11.30;99.90
60027;DHT22;45891;53.006;6.512;2024-02-16T00:22:25;11.20;99.90
60027;DHT22;45891;53.006;6.512;2024-02-16T00:24:54;11.20;99.90
60027;DHT22;45891;53.006;6.512;2024-02-16T00:27:20;11.20;99.90
60027;DHT22;45891;53.006;6.512;2024-02-16T00:29:46;11.10;99.90
60027;DHT22;45891;53.006;6.512;2024-02-16T00:32:12;11.20;99.90
60027;DHT22;45891;53.006;6.512;2024-02-16T00:34:38;11.10;99.90
60027;DHT22;45891;53.006;6.512;2024-02-16T00:37:05;11.10;99.90
60027;DHT22;45891;53.006;6.512;2024-02-16T00:39:35;11.10;99.90
60027;DHT22;45891;53.006;6.512;2024-02-16T00:42:01;11.10;99.90
60027;DHT22;45891;53.006;6.512;2024-02-16T00:44:27;11.10;99.90
60027;DHT22;45891;53.006;6.512;2024-02-16T00:46:53;11.10;99.90
60027;DHT22;45891;53.006;6.512;2024-02-16T00:49:19;11.10;99.90
60027;DHT22;45891;53.006;6.512;2024-02-16T00:51:45;11.10;99.90
60027;DHT22;45891;53.006;6.512;2024-02-16T00:54:11;11.10;99.90
60027;DHT22;45891;53.006;6.512;2024-02-16T00:56:37;11.10;99.90
60027;DHT22;45891;53.006;6.512;2024-02-16T00:59:04;11.00;99.90
60027;DHT22;45891;53.006;6.512;2024-02-16T01:01:30;11.10;99.90
60027;DHT22;45891;53.006;6.512;2024-02-16T01:03:56;11.00;99.90
60027;DHT22;45891;53.006;6.512;2024-02-16T01:06:22;11.00;99.90
60027;DHT22;45891;53.006;6.512;2024-02-16T01:08:48;11.00;99.90
60027;DHT22;45891;53.006;6.512;2024-02-16T01:11:14;11.00;99.90
60027;DHT22;45891;53.006;6.512;2024-02-16T01:13:40;11.00;99.90
60027;DHT22;45891;53.006;6.512;2024-02-16T01:16:06;11.00;99.90
60027;DHT22;45891;53.006;6.512;2024-02-16T01:18:33;11.00;99.90
60027;DHT22;45891;53.006;6.512;2024-02-16T01:21:02;11.00;99.90
60027;DHT22;45891;53.006;6.512;2024-02-16T01:23:29;11.00;99.90
60027;DHT22;45891;53.006;6.512;2024-02-16T01:25:55;10.90;99.90
60027;DHT22;45891;53.006;6.512;2024-02-16T01:28:21;10.90;99.90
60027;DHT22;45891;53.006;6.512;2024-02-16T01:30:47;10.90;99.90
60027;DHT22;45891;53.006;6.512;2024-02-16T01:33:13;10.90;99.90
60027;DHT22;45891;53.006;6.512;2024-02-16T01:35:39;10.80;99.90
60027;DHT22;45891;53.006;6.512;2024-02-16T01:38:05;10.80;99.90
60027;DHT22;45891;53.006;6.512;2024-02-16T01:40:31;10.80;99.90
60027;DHT22;45891;53.006;6.512;2024-02-16T01:42:57;10.80;99.90
60027;DHT22;45891;53.006;6.512;2024-02-16T01:45:23;10.90;99.90
60027;DHT22;45891;53.006;6.512;2024-02-16T01:47:50;10.90;99.90
60027;DHT22;45891;53.006;6.512;2024-02-16T01:50:17;10.90;99.90
60027;DHT22;45891;53.006;6.512;2024-02-16T01:52:43;10.90;99.90
60027;DHT22;45891;53.006;6.512;2024-02-16T01:55:10;10.90;99.90
60027;DHT22;45891;53.006;6.512;2024-02-16T01:57:40;10.90;99.90
60027;DHT22;45891;53.006;6.512;2024-02-16T02:00:08;10.90;99.90
60027;DHT22;45891;53.006;6.512;2024-02-16T02:02:34;10.90;99.90
60027;DHT22;45891;53.006;6.512;2024-02-16T02:05:00;10.90;99.90
60027;DHT22;45891;53.006;6.512;2024-02-16T02:07:27;10.90;99.90
60027;DHT22;45891;53.006;6.512;2024-02-16T02:09:53;10.80;99.90
60027;DHT22;45891;53.006;6.512;2024-02-16T02:12:19;10.80;99.90
60027;DHT22;45891;53.006;6.512;2024-02-16T02:14:45;10.90;99.90
60027;DHT22;45891;53.006;6.512;2024-02-16T02:17:12;10.80;99.90
60027;DHT22;45891;53.006;6.512;2024-02-16T02:19:38;10.80;99.90
60027;DHT22;45891;53.006;6.512;2024-02-16T02:22:04;10.80;99.90
60027;DHT22;45891;53.006;6.512;2024-02-16T02:24:30;10.80;99.90
60027;DHT22;45891;53.006;6.512;2024-02-16T02:26:56;10.80;99.90
60027;DHT22;45891;53.006;6.512;2024-02-16T02:29:23;10.80;99.90
60027;DHT22;45891;53.006;6.512;2024-02-16T02:31:49;10.70;99.90
60027;DHT22;45891;53.006;6.512;2024-02-16T02:34:15;10.70;99.90
60027;DHT22;45891;53.006;6.512;2024-02-16T02:36:40;10.70;99.90
60027;DHT22;45891;53.006;6.512;2024-02-16T02:39:07;10.70;99.90
60027;DHT22;45891;53.006;6.512;2024-02-16T02:41:32;10.70;99.90
60027;DHT22;45891;53.006;6.512;2024-02-16T02:43:58;10.70;99.90
60027;DHT22;45891;53.006;6.512;2024-02-16T02:46:24;10.70;99.90
60027;DHT22;45891;53.006;6.512;2024-02-16T02:48:51;10.70;99.90
60027;DHT22;45891;53.006;6.512;2024-02-16T02:51:20;10.70;99.90
60027;DHT22;45891;53.006;6.512;2024-02-16T02:53:46;10.70;99.90
60027;DHT22;45891;53.006;6.512;2024-02-16T02:56:11;10.70;99.90
60027;DHT22;45891;53.006;6.512;2024-02-16T02:58:40;10.70;99.90
60027;DHT22;45891;53.006;6.512;2024-02-16T03:01:06;10.70;99.90
60027;DHT22;45891;53.006;6.512;2024-02-16T03:03:33;10.70;99.90
60027;DHT22;45891;53.006;6.512;2024-02-16T03:05:59;10.60;99.90
60027;DHT22;45891;53.006;6.512;2024-02-16T03:08:25;10.60;99.90
60027;DHT22;45891;53.006;6.512;2024-02-16T03:10:51;10.60;99.90
60027;DHT22;45891;53.006;6.512;2024-02-16T03:13:17;10.60;99.90
60027;DHT22;45891;53.006;6.512;2024-02-16T03:15:46;10.60;99.90
60027;DHT22;45891;53.006;6.512;2024-02-16T03:18:11;10.60;99.90
60027;DHT22;45891;53.006;6.512;2024-02-16T03:20:37;10.60;99.90
60027;DHT22;45891;53.006;6.512;2024-02-16T03:23:04;10.60;99.90
60027;DHT22;45891;53.006;6.512;2024-02-16T03:25:30;10.60;99.90
60027;DHT22;45891;53.006;6.512;2024-02-16T03:27:56;10.60;99.90
60027;DHT22;45891;53.006;6.512;2024-02-16T03:30:22;10.60;99.90
60027;DHT22;45891;53.006;6.512;2024-02-16T03:32:48;10.60;99.90
60027;DHT22;45891;53.006;6.512;2024-02-16T03:35:15;10.60;99.90
60027;DHT22;45891;53.006;6.512;2024-02-16T03:37:41;10.60;99.90
60027;DHT22;45891;53.006;6.512;2024-02-16T03:40:07;10.60;99.90
60027;DHT22;45891;53.006;6.512;2024-02-16T03:42:34;10.60;99.90
60027;DHT22;45891;53.006;6.512;2024-02-16T03:45:00;10.60;99.90
60027;DHT22;45891;53.006;6.512;2024-02-16T03:47:25;10.60;99.90
60027;DHT22;45891;53.006;6.512;2024-02-16T03:49:51;10.60;99.90
60027;DHT22;45891;53.006;6.512;2024-02-16T03:52:17;10.50;99.90
60027;DHT22;45891;53.006;6.512;2024-02-16T03:54:43;10.50;99.90
60027;DHT22;45891;53.006;6.512;2024-02-16T03:57:13;10.60;99.90
60027;DHT22;45891;53.006;6.512;2024-02-16T03:59:39;10.50;99.90
60027;DHT22;45891;53.006;6.512;2024-02-16T04:02:05;10.50;99.90
60027;DHT22;45891;53.006;6.512;2024-02-16T04:04:31;10.50;99.90
60027;DHT22;45891;53.006;6.512;2024-02-16T04:06:57;10.50;99.90
60027;DHT22;45891;53.006;6.512;2024-02-16T04:09:23;10.50;99.90
60027;DHT22;45891;53.006;6.512;2024-02-16T04:11:49;10.60;99.90
60027;DHT22;45891;53.006;6.512;2024-02-16T04:14:15;10.50;99.90
60027;DHT22;45891;53.006;6.512;2024-02-16T04:16:42;10.50;99.90
60027;DHT22;45891;53.006;6.512;2024-02-16T04:19:09;10.50;99.90
60027;DHT22;45891;53.006;6.512;2024-02-16T04:21:35;10.50;99.90
60027;DHT22;45891;53.006;6.512;2024-02-16T04:24:01;10.50;99.90
60027;DHT22;45891;53.006;6.512;2024-02-16T04:26:26;10.50;99.90
60027;DHT22;45891;53.006;6.512;2024-02-16T04:28:52;10.50;99.90
60027;DHT22;45891;53.006;6.512;2024-02-16T04:31:19;10.50;99.90
60027;DHT22;45891;53.006;6.512;2024-02-16T04:33:45;10.50;99.90
60027;DHT22;45891;53.006;6.512;2024-02-16T04:36:10;10.50;99.90
60027;DHT22;45891;53.006;6.512;2024-02-16T04:38:36;10.50;99.90
60027;DHT22;45891;53.006;6.512;2024-02-16T04:41:04;10.50;99.90
60027;DHT22;45891;53.006;6.512;2024-02-16T04:43:30;10.50;99.90
60027;DHT22;45891;53.006;6.512;2024-02-16T04:45:56;10.50;99.90
60027;DHT22;45891;53.006;6.512;2024-02-16T04:48:22;10.50;99.90
60027;DHT22;45891;53.006;6.512;2024-02-16T04:50:48;10.50;99.90
60027;DHT22;45891;53.006;6.512;2024-02-16T04:53:14;10.50;99.90
60027;DHT22;45891;53.006;6.512;2024-02-16T04:55:40;10.50;99.90
60027;DHT22;45891;53.006;6.512;2024-02-16T04:58:06;10.50;99.90
60027;DHT22;45891;53.006;6.512;2024-02-16T05:00:35;10.50;99.90
60027;DHT22;45891;53.006;6.512;2024-02-16T05:03:01;10.50;99.90
60027;DHT22;45891;53.006;6.512;2024-02-16T05:05:27;10.50;99.90
60027;DHT22;45891;53.006;6.512;2024-02-16T05:07:53;10.50;99.90
60027;DHT22;45891;53.006;6.512;2024-02-16T05:10:19;10.50;99.90
60027;DHT22;45891;53.006;6.512;2024-02-16T05:12:45;10.60;99.90
60027;DHT22;45891;53.006;6.512;2024-02-16T05:15:11;10.60;99.90
60027;DHT22;45891;53.006;6.512;2024-02-16T05:17:40;10.60;99.90
60027;DHT22;45891;53.006;6.512;2024-02-16T05:20:12;10.60;99.90
60027;DHT22;45891;53.006;6.512;2024-02-16T05:22:42;10.60;99.90
60027;DHT22;45891;53.006;6.512;2024-02-16T05:25:09;10.60;99.90
60027;DHT22;45891;53.006;6.512;2024-02-16T05:27:36;10.60;99.90
60027;DHT22;45891;53.006;6.512;2024-02-16T05:30:06;10.60;99.90
60027;DHT22;45891;53.006;6.512;2024-02-16T05:32:34;10.60;99.90
60027;DHT22;45891;53.006;6.512;2024-02-16T05:35:00;10.60;99.90
60027;DHT22;45891;53.006;6.512;2024-02-16T05:37:30;10.60;99.90
60027;DHT22;45891;53.006;6.512;2024-02-16T05:39:58;10.60;99.90
60027;DHT22;45891;53.006;6.512;2024-02-16T05:42:34;10.50;99.90
60027;DHT22;45891;53.006;6.512;2024-02-16T05:45:00;10.60;99.90
60027;DHT22;45891;53.006;6.512;2024-02-16T05:47:27;10.60;99.90
60027;DHT22;45891;53.006;6.512;2024-02-16T05:49:53;10.60;99.90
60027;DHT22;45891;53.006;6.512;2024-02-16T05:52:19;10.60;99.90
60027;DHT22;45891;53.006;6.512;2024-02-16T05:54:46;10.60;99.90
60027;DHT22;45891;53.006;6.512;2024-02-16T05:57:13;10.60;99.90
60027;DHT22;45891;53.006;6.512;2024-02-16T05:59:40;10.60;99.90
60027;DHT22;45891;53.006;6.512;2024-02-16T06:02:07;10.60;99.90
60027;DHT22;45891;53.006;6.512;2024-02-16T06:04:34;10.60;99.90
60027;DHT22;45891;53.006;6.512;2024-02-16T06:07:00;10.60;99.90
60027;DHT22;45891;53.006;6.512;2024-02-16T06:09:26;10.60;99.90
60027;DHT22;45891;53.006;6.512;2024-02-16T06:11:56;10.70;99.90
60027;DHT22;45891;53.006;6.512;2024-02-16T06:14:22;10.70;99.90
60027;DHT22;45891;53.006;6.512;2024-02-16T06:16:51;10.70;99.90
60027;DHT22;45891;53.006;6.512;2024-02-16T06:19:17;10.70;99.90
60027;DHT22;45891;53.006;6.512;2024-02-16T06:21:43;10.70;99.90
60027;DHT22;45891;53.006;6.512;2024-02-16T06:24:09;10.70;99.90
60027;DHT22;45891;53.006;6.512;2024-02-16T06:26:35;10.70;99.90
60027;DHT22;45891;53.006;6.512;2024-02-16T06:29:01;10.70;99.90
60027;DHT22;45891;53.006;6.512;2024-02-16T06:31:30;10.70;99.90
60027;DHT22;45891;53.006;6.512;2024-02-16T06:34:01;10.60;99.90
60027;DHT22;45891;53.006;6.512;2024-02-16T06:36:28;10.60;99.90
60027;DHT22;45891;53.006;6.512;2024-02-16T06:38:57;10.60;99.90
60027;DHT22;45891;53.006;6.512;2024-02-16T06:41:29;10.60;99.90
60027;DHT22;45891;53.006;6.512;2024-02-16T06:43:55;10.60;99.90
60027;DHT22;45891;53.006;6.512;2024-02-16T06:46:21;10.70;99.90
60027;DHT22;45891;53.006;6.512;2024-02-16T06:48:48;10.60;99.90
60027;DHT22;45891;53.006;6.512;2024-02-16T06:51:14;10.70;99.90
60027;DHT22;45891;53.006;6.512;2024-02-16T06:53:40;10.70;99.90
60027;DHT22;45891;53.006;6.512;2024-02-16T06:56:06;10.70;99.90
60027;DHT22;45891;53.006;6.512;2024-02-16T06:58:32;10.70;99.90
60027;DHT22;45891;53.006;6.512;2024-02-16T07:00:58;10.70;99.90
60027;DHT22;45891;53.006;6.512;2024-02-16T07:03:28;10.70;99.90
60027;DHT22;45891;53.006;6.512;2024-02-16T07:05:54;10.70;99.90
60027;DHT22;45891;53.006;6.512;2024-02-16T07:08:20;10.80;99.90
60027;DHT22;45891;53.006;6.512;2024-02-16T07:10:49;10.80;99.90
60027;DHT22;45891;53.006;6.512;2024-02-16T07:13:17;10.80;99.90
60027;DHT22;45891;53.006;6.512;2024-02-16T07:15:43;10.80;99.90
60027;DHT22;45891;53.006;6.512;2024-02-16T07:18:09;10.90;99.90
60027;DHT22;45891;53.006;6.512;2024-02-16T07:20:35;10.90;99.90
60027;DHT22;45891;53.006;6.512;2024-02-16T07:23:02;11.00;99.90
60027;DHT22;45891;53.006;6.512;2024-02-16T07:25:28;11.00;99.90
60027;DHT22;45891;53.006;6.512;2024-02-16T07:27:54;11.00;99.90
60027;DHT22;45891;53.006;6.512;2024-02-16T07:30:20;11.00;99.90
60027;DHT22;45891;53.006;6.512;2024-02-16T07:32:49;11.00;99.90
60027;DHT22;45891;53.006;6.512;2024-02-16T07:35:16;11.00;99.90
60027;DHT22;45891;53.006;6.512;2024-02-16T07:37:42;11.10;99.90
60027;DHT22;45891;53.006;6.512;2024-02-16T07:40:09;11.00;99.90
60027;DHT22;45891;53.006;6.512;2024-02-16T07:42:41;11.10;99.90
60027;DHT22;45891;53.006;6.512;2024-02-16T07:45:08;11.10;99.90
60027;DHT22;45891;53.006;6.512;2024-02-16T07:47:35;11.10;99.90
60027;DHT22;45891;53.006;6.512;2024-02-16T07:50:01;11.10;99.90
60027;DHT22;45891;53.006;6.512;2024-02-16T07:52:27;11.10;99.90
60027;DHT22;45891;53.006;6.512;2024-02-16T07:54:53;11.10;99.90
60027;DHT22;45891;53.006;6.512;2024-02-16T07:57:18;11.20;99.90
60027;DHT22;45891;53.006;6.512;2024-02-16T07:59:44;11.20;99.90
60027;DHT22;45891;53.006;6.512;2024-02-16T08:02:10;11.10;99.90
60027;DHT22;45891;53.006;6.512;2024-02-16T08:04:41;11.20;99.90
60027;DHT22;45891;53.006;6.512;2024-02-16T08:07:07;11.20;99.90
60027;DHT22;45891;53.006;6.512;2024-02-16T08:09:33;11.20;99.90
60027;DHT22;45891;53.006;6.512;2024-02-16T08:11:59;11.20;99.90
60027;DHT22;45891;53.006;6.512;2024-02-16T08:14:28;11.20;99.90
60027;DHT22;45891;53.006;6.512;2024-02-16T08:16:54;11.20;99.90
60027;DHT22;45891;53.006;6.512;2024-02-16T08:19:20;11.30;99.90
60027;DHT22;45891;53.006;6.512;2024-02-16T08:21:46;11.20;99.90
60027;DHT22;45891;53.006;6.512;2024-02-16T08:26:38;11.30;99.90
60027;DHT22;45891;53.006;6.512;2024-02-16T08:29:04;11.30;99.90
60027;DHT22;45891;53.006;6.512;2024-02-16T08:31:32;11.30;99.90
60027;DHT22;45891;53.006;6.512;2024-02-16T08:33:59;11.30;99.90
60027;DHT22;45891;53.006;6.512;2024-02-16T08:36:24;11.30;99.90
60027;DHT22;45891;53.006;6.512;2024-02-16T08:38:54;11.40;99.90
60027;DHT22;45891;53.006;6.512;2024-02-16T08:41:21;11.40;99.90
60027;DHT22;45891;53.006;6.512;2024-02-16T08:43:47;11.40;99.90
60027;DHT22;45891;53.006;6.512;2024-02-16T08:46:13;11.50;99.90
60027;DHT22;45891;53.006;6.512;2024-02-16T08:48:39;11.50;99.90
60027;DHT22;45891;53.006;6.512;2024-02-16T08:51:05;11.50;99.90
60027;DHT22;45891;53.006;6.512;2024-02-16T08:53:39;11.50;99.90
60027;DHT22;45891;53.006;6.512;2024-02-16T08:56:08;11.60;99.90
60027;DHT22;45891;53.006;6.512;2024-02-16T08:58:34;11.60;99.90
60027;DHT22;45891;53.006;6.512;2024-02-16T09:01:00;11.60;99.90
60027;DHT22;45891;53.006;6.512;2024-02-16T09:03:26;11.70;99.90
60027;DHT22;45891;53.006;6.512;2024-02-16T09:05:52;11.80;99.90
60027;DHT22;45891;53.006;6.512;2024-02-16T09:08:18;11.80;99.90
60027;DHT22;45891;53.006;6.512;2024-02-16T09:10:44;11.90;99.90
60027;DHT22;45891;53.006;6.512;2024-02-16T09:13:11;12.00;99.90
60027;DHT22;45891;53.006;6.512;2024-02-16T09:15:36;12.10;99.90
60027;DHT22;45891;53.006;6.512;2024-02-16T09:18:03;12.10;99.90
60027;DHT22;45891;53.006;6.512;2024-02-16T09:20:29;12.20;99.90
60027;DHT22;45891;53.006;6.512;2024-02-16T09:22:55;12.30;99.90
60027;DHT22;45891;53.006;6.512;2024-02-16T09:25:21;12.30;99.90
60027;DHT22;45891;53.006;6.512;2024-02-16T09:27:47;12.40;99.90
60027;DHT22;45891;53.006;6.512;2024-02-16T09:30:13;12.40;99.90
60027;DHT22;45891;53.006;6.512;2024-02-16T09:32:39;12.40;99.90
60027;DHT22;45891;53.006;6.512;2024-02-16T09:35:06;12.50;99.90
60027;DHT22;45891;53.006;6.512;2024-02-16T09:37:32;12.50;99.90
60027;DHT22;45891;53.006;6.512;2024-02-16T09:39:57;12.60;99.90
60027;DHT22;45891;53.006;6.512;2024-02-16T09:42:25;12.60;99.90
60027;DHT22;45891;53.006;6.512;2024-02-16T09:44:54;12.70;99.90
60027;DHT22;45891;53.006;6.512;2024-02-16T09:47:21;12.70;99.90
60027;DHT22;45891;53.006;6.512;2024-02-16T09:49:47;12.80;99.90
60027;DHT22;45891;53.006;6.512;2024-02-16T09:52:13;12.80;99.90
60027;DHT22;45891;53.006;6.512;2024-02-16T09:54:40;12.90;99.90
60027;DHT22;45891;53.006;6.512;2024-02-16T09:57:06;12.90;99.90
60027;DHT22;45891;53.006;6.512;2024-02-16T09:59:32;13.00;99.90
60027;DHT22;45891;53.006;6.512;2024-02-16T10:02:01;13.00;99.90
60027;DHT22;45891;53.006;6.512;2024-02-16T10:04:27;13.00;99.90
60027;DHT22;45891;53.006;6.512;2024-02-16T10:06:54;13.10;99.90
60027;DHT22;45891;53.006;6.512;2024-02-16T10:09:26;13.10;99.90
60027;DHT22;45891;53.006;6.512;2024-02-16T10:11:52;13.20;99.90
60027;DHT22;45891;53.006;6.512;2024-02-16T10:14:18;13.20;99.90
60027;DHT22;45891;53.006;6.512;2024-02-16T10:16:45;13.30;99.90
60027;DHT22;45891;53.006;6.512;2024-02-16T10:19:12;13.40;99.90
60027;DHT22;45891;53.006;6.512;2024-02-16T10:21:38;13.40;99.90
60027;DHT22;45891;53.006;6.512;2024-02-16T10:24:08;13.50;99.90
60027;DHT22;45891;53.006;6.512;2024-02-16T10:26:34;13.50;99.90
60027;DHT22;45891;53.006;6.512;2024-02-16T10:29:03;13.50;99.90
60027;DHT22;45891;53.006;6.512;2024-02-16T10:31:29;13.50;99.90
60027;DHT22;45891;53.006;6.512;2024-02-16T10:34:05;13.50;99.90
60027;DHT22;45891;53.006;6.512;2024-02-16T10:36:35;13.50;99.90
60027;DHT22;45891;53.006;6.512;2024-02-16T10:39:07;13.50;99.90
60027;DHT22;45891;53.006;6.512;2024-02-16T10:41:38;13.50;99.90
60027;DHT22;45891;53.006;6.512;2024-02-16T10:44:04;13.40;99.90
60027;DHT22;45891;53.006;6.512;2024-02-16T10:46:30;13.30;99.90
60027;DHT22;45891;53.006;6.512;2024-02-16T10:48:56;13.30;99.90
60027;DHT22;45891;53.006;6.512;2024-02-16T10:51:28;13.30;99.90
60027;DHT22;45891;53.006;6.512;2024-02-16T10:53:56;13.30;99.90
60027;DHT22;45891;53.006;6.512;2024-02-16T10:56:27;13.30;99.90
60027;DHT22;45891;53.006;6.512;2024-02-16T10:58:54;13.30;99.90
60027;DHT22;45891;53.006;6.512;2024-02-16T11:01:20;13.30;99.90
60027;DHT22;45891;53.006;6.512;2024-02-16T11:03:46;13.30;99.90
60027;DHT22;45891;53.006;6.512;2024-02-16T11:06:15;13.20;99.90
60027;DHT22;45891;53.006;6.512;2024-02-16T11:08:45;13.10;99.90
60027;DHT22;45891;53.006;6.512;2024-02-16T11:11:22;13.20;99.90
60027;DHT22;45891;53.006;6.512;2024-02-16T11:13:48;13.10;99.90
60027;DHT22;45891;53.006;6.512;2024-02-16T11:16:13;13.00;99.90
60027;DHT22;45891;53.006;6.512;2024-02-16T11:18:41;12.90;99.90
60027;DHT22;45891;53.006;6.512;2024-02-16T11:21:11;12.80;99.90
60027;DHT22;45891;53.006;6.512;2024-02-16T11:23:37;12.80;99.90
60027;DHT22;45891;53.006;6.512;2024-02-16T11:26:10;12.70;99.90
60027;DHT22;45891;53.006;6.512;2024-02-16T11:28:42;12.60;99.90
60027;DHT22;45891;53.006;6.512;2024-02-16T11:31:08;12.60;99.90
60027;DHT22;45891;53.006;6.512;2024-02-16T11:33:35;12.40;99.90
60027;DHT22;45891;53.006;6.512;2024-02-16T11:36:02;12.30;99.90
60027;DHT22;45891;53.006;6.512;2024-02-16T11:38:32;12.20;99.90
60027;DHT22;45891;53.006;6.512;2024-02-16T11:43:27;11.90;99.90
60027;DHT22;45891;53.006;6.512;2024-02-16T11:45:53;11.80;99.90
60027;DHT22;45891;53.006;6.512;2024-02-16T11:48:22;11.60;99.90
60027;DHT22;45891;53.006;6.512;2024-02-16T11:50:49;11.50;99.90
60027;DHT22;45891;53.006;6.512;2024-02-16T11:53:18;11.50;99.90
60027;DHT22;45891;53.006;6.512;2024-02-16T11:55:49;11.40;99.90
60027;DHT22;45891;53.006;6.512;2024-02-16T11:58:16;11.30;99.90
60027;DHT22;45891;53.006;6.512;2024-02-16T12:00:43;11.30;99.90
60027;DHT22;45891;53.006;6.512;2024-02-16T12:03:09;11.20;99.90
60027;DHT22;45891;53.006;6.512;2024-02-16T12:05:35;11.20;99.90
60027;DHT22;45891;53.006;6.512;2024-02-16T12:08:01;11.10;99.90
60027;DHT22;45891;53.006;6.512;2024-02-16T12:10:27;11.00;99.90
60027;DHT22;45891;53.006;6.512;2024-02-16T12:12:53;11.00;99.90
60027;DHT22;45891;53.006;6.512;2024-02-16T12:15:19;11.00;99.90
60027;DHT22;45891;53.006;6.512;2024-02-16T12:17:46;11.00;99.90
60027;DHT22;45891;53.006;6.512;2024-02-16T12:20:12;11.00;99.90
60027;DHT22;45891;53.006;6.512;2024-02-16T12:22:40;11.10;99.90
60027;DHT22;45891;53.006;6.512;2024-02-16T12:25:07;11.10;99.90
60027;DHT22;45891;53.006;6.512;2024-02-16T12:27:33;11.10;99.90
60027;DHT22;45891;53.006;6.512;2024-02-16T12:29:59;11.10;99.90
60027;DHT22;45891;53.006;6.512;2024-02-16T12:32:25;11.10;99.90
60027;DHT22;45891;53.006;6.512;2024-02-16T12:34:51;11.10;99.90
60027;DHT22;45891;53.006;6.512;2024-02-16T12:37:17;11.10;99.90
60027;DHT22;45891;53.006;6.512;2024-02-16T12:39:43;11.00;99.90
60027;DHT22;45891;53.006;6.512;2024-02-16T12:42:11;11.00;99.90
60027;DHT22;45891;53.006;6.512;2024-02-16T12:44:38;11.00;99.90
60027;DHT22;45891;53.006;6.512;2024-02-16T12:47:04;11.10;99.90
60027;DHT22;45891;53.006;6.512;2024-02-16T12:49:31;11.00;99.90
60027;DHT22;45891;53.006;6.512;2024-02-16T12:51:57;11.00;99.90
60027;DHT22;45891;53.006;6.512;2024-02-16T12:54:23;11.00;99.90
60027;DHT22;45891;53.006;6.512;2024-02-16T12:56:49;11.00;99.90
60027;DHT22;45891;53.006;6.512;2024-02-16T12:59:15;11.00;99.90
60027;DHT22;45891;53.006;6.512;2024-02-16T13:01:42;11.00;99.90
60027;DHT22;45891;53.006;6.512;2024-02-16T13:04:08;10.90;99.90
60027;DHT22;45891;53.006;6.512;2024-02-16T13:06:34;10.90;99.90
60027;DHT22;45891;53.006;6.512;2024-02-16T13:09:00;11.00;99.90
60027;DHT22;45891;53.006;6.512;2024-02-16T13:11:28;11.00;99.90
60027;DHT22;45891;53.006;6.512;2024-02-16T13:13:54;11.00;99.90
60027;DHT22;45891;53.006;6.512;2024-02-16T13:16:20;11.00;99.90
60027;DHT22;45891;53.006;6.512;2024-02-16T13:18:46;11.00;99.90
60027;DHT22;45891;53.006;6.512;2024-02-16T13:21:12;11.10;99.90
60027;DHT22;45891;53.006;6.512;2024-02-16T13:23:38;11.10;99.90
60027;DHT22;45891;53.006;6.512;2024-02-16T13:26:04;11.20;99.90
60027;DHT22;45891;53.006;6.512;2024-02-16T13:28:30;11.20;99.90
60027;DHT22;45891;53.006;6.512;2024-02-16T13:30:56;11.10;99.90
60027;DHT22;45891;53.006;6.512;2024-02-16T13:33:22;11.20;99.90
60027;DHT22;45891;53.006;6.512;2024-02-16T13:35:48;11.20;99.90
60027;DHT22;45891;53.006;6.512;2024-02-16T13:38:14;11.20;99.90
60027;DHT22;45891;53.006;6.512;2024-02-16T13:40:40;11.20;99.90
60027;DHT22;45891;53.006;6.512;2024-02-16T13:43:07;11.20;99.90
60027;DHT22;45891;53.006;6.512;2024-02-16T13:45:49;11.20;99.90
60027;DHT22;45891;53.006;6.512;2024-02-16T13:48:16;11.20;99.90
60027;DHT22;45891;53.006;6.512;2024-02-16T13:50:46;11.20;99.90
60027;DHT22;45891;53.006;6.512;2024-02-16T13:53:12;11.20;99.90
60027;DHT22;45891;53.006;6.512;2024-02-16T13:55:39;11.20;99.90
60027;DHT22;45891;53.006;6.512;2024-02-16T13:58:05;11.20;99.90
60027;DHT22;45891;53.006;6.512;2024-02-16T14:00:30;11.30;99.90
60027;DHT22;45891;53.006;6.512;2024-02-16T14:02:56;11.20;99.90
60027;DHT22;45891;53.006;6.512;2024-02-16T14:05:22;11.20;99.90
60027;DHT22;45891;53.006;6.512;2024-02-16T14:07:51;11.30;99.90
60027;DHT22;45891;53.006;6.512;2024-02-16T14:10:17;11.20;99.90
60027;DHT22;45891;53.006;6.512;2024-02-16T14:12:44;11.20;99.90
60027;DHT22;45891;53.006;6.512;2024-02-16T14:15:10;11.20;99.90
60027;DHT22;45891;53.006;6.512;2024-02-16T14:17:41;11.20;99.90
60027;DHT22;45891;53.006;6.512;2024-02-16T14:20:07;11.10;99.90
60027;DHT22;45891;53.006;6.512;2024-02-16T14:22:33;11.10;99.90
60027;DHT22;45891;53.006;6.512;2024-02-16T14:24:59;11.10;99.90
60027;DHT22;45891;53.006;6.512;2024-02-16T14:27:25;11.10;99.90
60027;DHT22;45891;53.006;6.512;2024-02-16T14:29:51;11.00;99.90
60027;DHT22;45891;53.006;6.512;2024-02-16T14:32:17;11.00;99.90
60027;DHT22;45891;53.006;6.512;2024-02-16T14:34:43;11.00;99.90
60027;DHT22;45891;53.006;6.512;2024-02-16T14:37:10;11.00;99.90
60027;DHT22;45891;53.006;6.512;2024-02-16T14:39:36;11.00;99.90
60027;DHT22;45891;53.006;6.512;2024-02-16T14:42:02;11.00;99.90
60027;DHT22;45891;53.006;6.512;2024-02-16T14:44:28;11.00;99.90
60027;DHT22;45891;53.006;6.512;2024-02-16T14:46:54;11.00;99.90
60027;DHT22;45891;53.006;6.512;2024-02-16T14:49:19;10.90;99.90
60027;DHT22;45891;53.006;6.512;2024-02-16T14:51:47;10.90;99.90
60027;DHT22;45891;53.006;6.512;2024-02-16T14:54:13;10.80;99.90
60027;DHT22;45891;53.006;6.512;2024-02-16T14:56:39;10.90;99.90
60027;DHT22;45891;53.006;6.512;2024-02-16T14:59:05;10.80;99.90
60027;DHT22;45891;53.006;6.512;2024-02-16T15:01:31;10.80;99.90
60027;DHT22;45891;53.006;6.512;2024-02-16T15:03:57;10.90;99.90
60027;DHT22;45891;53.006;6.512;2024-02-16T15:06:23;10.90;99.90
60027;DHT22;45891;53.006;6.512;2024-02-16T15:08:50;10.90;99.90
60027;DHT22;45891;53.006;6.512;2024-02-16T15:11:15;10.90;99.90
60027;DHT22;45891;53.006;6.512;2024-02-16T15:13:43;10.90;99.90
60027;DHT22;45891;53.006;6.512;2024-02-16T15:16:08;10.90;99.90
60027;DHT22;45891;53.006;6.512;2024-02-16T15:18:35;10.90;99.90
60027;DHT22;45891;53.006;6.512;2024-02-16T15:21:01;10.90;99.90
60027;DHT22;45891;53.006;6.512;2024-02-16T15:23:27;10.90;99.90
60027;DHT22;45891;53.006;6.512;2024-02-16T15:25:53;10.80;99.90
60027;DHT22;45891;53.006;6.512;2024-02-16T15:28:19;10.80;99.90
60027;DHT22;45891;53.006;6.512;2024-02-16T15:30:45;10.80;99.90